logo
Rechercher aéroport 
image banner adimage banner adimage banner ad
image banner ad

CA07 - Scheidel Ranch

Situé à Pleasant Grove, United States

ICAO - CA07, IATA -

Données fournies par Airmate  

Information générale

Coordonnées: N38°50'25" W121°33'42"
Élévation : 28 feet MSL.
Variation magnétique : 16° East
Voir autres Aéroports à California

Données opérationnelles

Special qualification required
Heure actuelle UTC:
Heure actuelle locale:
Météo à : KSMF - Sacramento Intl ( 16 km )
METAR: KSMF 011553Z 17003KT 10SM CLR 18/12 A2980 RMK AO2 SLP090 T01780117
TAF: KSMF 011122Z 0112/0212 17004KT P6SM SKC FM020000 18009KT P6SM SKC
Voir NOTAMs / SUP AIP / TFR affectant cet aéroport [VIEW]
Fréquences de communication: [VIEW]

Pistes:

Identifiant RWYQFULongueur (ft)Largeur (ft)SurfaceLDA (ft)
14210035OTHER
32210035OTHER

Coordonnées de l'aéroport

Adresse: Pleasant Grove United States

Vue satellite de CA07